sensor_id;sensor_type;location;lat;lon;timestamp;P1;durP1;ratioP1;P2;durP2;ratioP2
63259;SDS011;49390;51.380;0.098;2022-11-21T00:02:08;8.38;;;2.72;;
63259;SDS011;49390;51.380;0.098;2022-11-21T00:04:35;11.25;;;3.03;;
63259;SDS011;49390;51.380;0.098;2022-11-21T00:07:08;10.88;;;2.60;;
63259;SDS011;49390;51.380;0.098;2022-11-21T00:09:36;13.25;;;2.95;;
63259;SDS011;49390;51.380;0.098;2022-11-21T00:12:04;7.60;;;2.58;;
63259;SDS011;49390;51.380;0.098;2022-11-21T00:14:33;10.25;;;2.75;;
63259;SDS011;49390;51.380;0.098;2022-11-21T00:17:01;13.02;;;2.60;;
63259;SDS011;49390;51.380;0.098;2022-11-21T00:19:29;12.35;;;2.67;;
63259;SDS011;49390;51.380;0.098;2022-11-21T00:21:57;10.90;;;2.78;;
63259;SDS011;49390;51.380;0.098;2022-11-21T00:24:26;12.30;;;2.83;;
63259;SDS011;49390;51.380;0.098;2022-11-21T00:26:55;10.38;;;2.63;;
63259;SDS011;49390;51.380;0.098;2022-11-21T00:29:24;8.93;;;2.40;;
63259;SDS011;49390;51.380;0.098;2022-11-21T00:31:52;10.23;;;2.75;;
63259;SDS011;49390;51.380;0.098;2022-11-21T00:34:20;7.95;;;2.30;;
63259;SDS011;49390;51.380;0.098;2022-11-21T00:36:48;8.65;;;2.85;;
63259;SDS011;49390;51.380;0.098;2022-11-21T00:39:16;9.50;;;2.83;;
63259;SDS011;49390;51.380;0.098;2022-11-21T00:41:45;10.35;;;2.67;;
63259;SDS011;49390;51.380;0.098;2022-11-21T00:44:13;14.85;;;2.92;;
63259;SDS011;49390;51.380;0.098;2022-11-21T00:46:41;13.50;;;3.60;;
63259;SDS011;49390;51.380;0.098;2022-11-21T00:49:09;7.57;;;2.80;;
63259;SDS011;49390;51.380;0.098;2022-11-21T00:51:37;7.90;;;2.38;;
63259;SDS011;49390;51.380;0.098;2022-11-21T00:54:05;8.02;;;2.20;;
63259;SDS011;49390;51.380;0.098;2022-11-21T00:56:34;8.75;;;3.35;;
63259;SDS011;49390;51.380;0.098;2022-11-21T00:59:03;9.30;;;2.60;;
63259;SDS011;49390;51.380;0.098;2022-11-21T01:01:31;13.20;;;2.80;;
63259;SDS011;49390;51.380;0.098;2022-11-21T01:03:59;6.95;;;2.60;;
63259;SDS011;49390;51.380;0.098;2022-11-21T01:06:28;9.48;;;2.83;;
63259;SDS011;49390;51.380;0.098;2022-11-21T01:08:55;11.13;;;2.50;;
63259;SDS011;49390;51.380;0.098;2022-11-21T01:11:23;6.97;;;2.55;;
63259;SDS011;49390;51.380;0.098;2022-11-21T01:13:52;10.27;;;2.75;;
63259;SDS011;49390;51.380;0.098;2022-11-21T01:16:22;12.82;;;2.88;;
63259;SDS011;49390;51.380;0.098;2022-11-21T01:18:52;10.43;;;2.90;;
63259;SDS011;49390;51.380;0.098;2022-11-21T01:22:25;7.75;;;2.50;;
63259;SDS011;49390;51.380;0.098;2022-11-21T01:24:59;10.25;;;2.72;;
63259;SDS011;49390;51.380;0.098;2022-11-21T01:27:26;7.93;;;2.50;;
63259;SDS011;49390;51.380;0.098;2022-11-21T01:29:57;8.65;;;2.97;;
63259;SDS011;49390;51.380;0.098;2022-11-21T01:32:26;10.77;;;3.22;;
63259;SDS011;49390;51.380;0.098;2022-11-21T01:34:55;10.82;;;2.65;;
63259;SDS011;49390;51.380;0.098;2022-11-21T01:37:23;8.55;;;2.55;;
63259;SDS011;49390;51.380;0.098;2022-11-21T01:39:51;11.55;;;2.95;;
63259;SDS011;49390;51.380;0.098;2022-11-21T01:42:19;9.75;;;2.55;;
63259;SDS011;49390;51.380;0.098;2022-11-21T01:44:51;8.95;;;2.38;;
63259;SDS011;49390;51.380;0.098;2022-11-21T01:47:21;14.20;;;2.80;;
63259;SDS011;49390;51.380;0.098;2022-11-21T01:49:49;7.82;;;2.30;;
63259;SDS011;49390;51.380;0.098;2022-11-21T01:52:21;8.02;;;2.85;;
63259;SDS011;49390;51.380;0.098;2022-11-21T01:54:55;11.20;;;2.88;;
63259;SDS011;49390;51.380;0.098;2022-11-21T01:57:34;10.85;;;2.63;;
63259;SDS011;49390;51.380;0.098;2022-11-21T02:00:09;8.52;;;2.83;;
63259;SDS011;49390;51.380;0.098;2022-11-21T02:02:50;12.40;;;2.70;;
63259;SDS011;49390;51.380;0.098;2022-11-21T02:05:27;9.77;;;2.92;;
63259;SDS011;49390;51.380;0.098;2022-11-21T02:08:03;12.93;;;3.03;;
63259;SDS011;49390;51.380;0.098;2022-11-21T02:10:34;8.93;;;3.42;;
63259;SDS011;49390;51.380;0.098;2022-11-21T02:13:05;7.75;;;2.72;;
63259;SDS011;49390;51.380;0.098;2022-11-21T02:15:33;6.47;;;2.85;;
63259;SDS011;49390;51.380;0.098;2022-11-21T02:18:00;9.50;;;3.10;;
63259;SDS011;49390;51.380;0.098;2022-11-21T02:20:28;7.43;;;2.55;;
63259;SDS011;49390;51.380;0.098;2022-11-21T02:22:59;14.80;;;3.92;;
63259;SDS011;49390;51.380;0.098;2022-11-21T02:25:50;8.93;;;2.58;;
63259;SDS011;49390;51.380;0.098;2022-11-21T02:28:19;11.43;;;2.85;;
63259;SDS011;49390;51.380;0.098;2022-11-21T02:30:50;10.82;;;3.50;;
63259;SDS011;49390;51.380;0.098;2022-11-21T02:33:18;8.55;;;2.90;;
63259;SDS011;49390;51.380;0.098;2022-11-21T02:35:57;11.85;;;2.78;;
63259;SDS011;49390;51.380;0.098;2022-11-21T02:38:30;12.60;;;3.17;;
63259;SDS011;49390;51.380;0.098;2022-11-21T02:41:05;10.77;;;2.97;;
63259;SDS011;49390;51.380;0.098;2022-11-21T02:43:54;19.48;;;4.63;;
63259;SDS011;49390;51.380;0.098;2022-11-21T02:46:28;11.38;;;2.70;;
63259;SDS011;49390;51.380;0.098;2022-11-21T02:48:56;11.30;;;3.65;;
63259;SDS011;49390;51.380;0.098;2022-11-21T02:51:26;18.25;;;3.60;;
63259;SDS011;49390;51.380;0.098;2022-11-21T02:53:53;8.30;;;2.97;;
63259;SDS011;49390;51.380;0.098;2022-11-21T02:56:22;9.85;;;2.80;;
63259;SDS011;49390;51.380;0.098;2022-11-21T02:58:50;12.85;;;3.50;;
63259;SDS011;49390;51.380;0.098;2022-11-21T03:01:19;10.25;;;2.78;;
63259;SDS011;49390;51.380;0.098;2022-11-21T03:03:47;13.65;;;3.45;;
63259;SDS011;49390;51.380;0.098;2022-11-21T03:06:15;8.95;;;3.25;;
63259;SDS011;49390;51.380;0.098;2022-11-21T03:08:43;10.63;;;2.95;;
63259;SDS011;49390;51.380;0.098;2022-11-21T03:11:11;10.95;;;3.38;;
63259;SDS011;49390;51.380;0.098;2022-11-21T03:13:39;19.90;;;3.38;;
63259;SDS011;49390;51.380;0.098;2022-11-21T03:16:10;8.20;;;3.00;;
63259;SDS011;49390;51.380;0.098;2022-11-21T03:18:38;8.23;;;2.42;;
63259;SDS011;49390;51.380;0.098;2022-11-21T03:21:06;9.80;;;2.50;;
63259;SDS011;49390;51.380;0.098;2022-11-21T03:23:34;10.90;;;3.00;;
63259;SDS011;49390;51.380;0.098;2022-11-21T03:26:02;8.15;;;2.72;;
63259;SDS011;49390;51.380;0.098;2022-11-21T03:28:30;10.63;;;2.72;;
63259;SDS011;49390;51.380;0.098;2022-11-21T03:30:58;10.32;;;2.83;;
63259;SDS011;49390;51.380;0.098;2022-11-21T03:33:26;10.32;;;2.70;;
63259;SDS011;49390;51.380;0.098;2022-11-21T03:35:54;13.07;;;3.03;;
63259;SDS011;49390;51.380;0.098;2022-11-21T03:38:25;10.52;;;2.50;;
63259;SDS011;49390;51.380;0.098;2022-11-21T03:40:53;8.43;;;2.35;;
63259;SDS011;49390;51.380;0.098;2022-11-21T03:43:21;8.63;;;2.67;;
63259;SDS011;49390;51.380;0.098;2022-11-21T03:45:50;12.38;;;3.95;;
63259;SDS011;49390;51.380;0.098;2022-11-21T03:48:19;11.50;;;3.10;;
63259;SDS011;49390;51.380;0.098;2022-11-21T03:50:47;13.60;;;3.00;;
63259;SDS011;49390;51.380;0.098;2022-11-21T03:53:15;8.98;;;2.88;;
63259;SDS011;49390;51.380;0.098;2022-11-21T03:55:43;11.25;;;2.90;;
63259;SDS011;49390;51.380;0.098;2022-11-21T03:58:12;10.50;;;2.67;;
63259;SDS011;49390;51.380;0.098;2022-11-21T04:00:40;6.82;;;2.42;;
63259;SDS011;49390;51.380;0.098;2022-11-21T04:03:08;8.10;;;2.50;;
63259;SDS011;49390;51.380;0.098;2022-11-21T04:05:37;12.18;;;3.65;;
63259;SDS011;49390;51.380;0.098;2022-11-21T04:08:06;12.80;;;3.42;;
63259;SDS011;49390;51.380;0.098;2022-11-21T04:10:37;13.50;;;2.80;;
63259;SDS011;49390;51.380;0.098;2022-11-21T04:13:05;10.63;;;2.80;;
63259;SDS011;49390;51.380;0.098;2022-11-21T04:15:34;11.05;;;2.72;;
63259;SDS011;49390;51.380;0.098;2022-11-21T04:18:01;9.27;;;2.65;;
63259;SDS011;49390;51.380;0.098;2022-11-21T04:20:30;8.60;;;2.75;;
63259;SDS011;49390;51.380;0.098;2022-11-21T04:22:58;12.05;;;3.10;;
63259;SDS011;49390;51.380;0.098;2022-11-21T04:25:26;15.52;;;2.72;;
63259;SDS011;49390;51.380;0.098;2022-11-21T04:27:55;12.18;;;3.25;;
63259;SDS011;49390;51.380;0.098;2022-11-21T04:30:26;6.13;;;2.63;;
63259;SDS011;49390;51.380;0.098;2022-11-21T04:32:55;15.30;;;3.05;;
63259;SDS011;49390;51.380;0.098;2022-11-21T04:35:24;7.72;;;2.20;;
63259;SDS011;49390;51.380;0.098;2022-11-21T04:37:52;10.52;;;2.42;;
63259;SDS011;49390;51.380;0.098;2022-11-21T04:40:21;10.30;;;2.55;;
63259;SDS011;49390;51.380;0.098;2022-11-21T04:42:49;11.48;;;2.67;;
63259;SDS011;49390;51.380;0.098;2022-11-21T04:45:20;11.15;;;2.85;;
63259;SDS011;49390;51.380;0.098;2022-11-21T04:47:48;9.60;;;3.08;;
63259;SDS011;49390;51.380;0.098;2022-11-21T04:50:17;13.77;;;3.00;;
63259;SDS011;49390;51.380;0.098;2022-11-21T04:52:48;13.98;;;3.95;;
63259;SDS011;49390;51.380;0.098;2022-11-21T04:55:21;10.32;;;2.85;;
63259;SDS011;49390;51.380;0.098;2022-11-21T04:57:51;14.43;;;3.00;;
63259;SDS011;49390;51.380;0.098;2022-11-21T05:00:19;12.55;;;2.67;;
63259;SDS011;49390;51.380;0.098;2022-11-21T05:02:50;12.43;;;3.25;;
63259;SDS011;49390;51.380;0.098;2022-11-21T05:05:19;12.02;;;2.70;;
63259;SDS011;49390;51.380;0.098;2022-11-21T05:07:47;9.82;;;2.80;;
63259;SDS011;49390;51.380;0.098;2022-11-21T05:10:15;12.48;;;2.72;;
63259;SDS011;49390;51.380;0.098;2022-11-21T05:12:43;9.32;;;2.78;;
63259;SDS011;49390;51.380;0.098;2022-11-21T05:15:32;11.10;;;2.95;;
63259;SDS011;49390;51.380;0.098;2022-11-21T05:18:00;9.55;;;3.03;;
63259;SDS011;49390;51.380;0.098;2022-11-21T05:20:28;12.80;;;3.47;;
63259;SDS011;49390;51.380;0.098;2022-11-21T05:23:03;11.90;;;2.88;;
63259;SDS011;49390;51.380;0.098;2022-11-21T05:25:32;8.45;;;2.65;;
63259;SDS011;49390;51.380;0.098;2022-11-21T05:28:00;10.65;;;2.58;;
63259;SDS011;49390;51.380;0.098;2022-11-21T05:31:25;16.02;;;3.28;;
63259;SDS011;49390;51.380;0.098;2022-11-21T05:33:54;13.88;;;2.95;;
63259;SDS011;49390;51.380;0.098;2022-11-21T05:36:23;12.32;;;2.85;;
63259;SDS011;49390;51.380;0.098;2022-11-21T05:38:51;8.45;;;3.00;;
63259;SDS011;49390;51.380;0.098;2022-11-21T05:41:19;12.43;;;2.92;;
63259;SDS011;49390;51.380;0.098;2022-11-21T05:43:47;13.90;;;3.70;;
63259;SDS011;49390;51.380;0.098;2022-11-21T05:46:18;11.23;;;3.30;;
63259;SDS011;49390;51.380;0.098;2022-11-21T05:48:50;14.80;;;2.85;;
63259;SDS011;49390;51.380;0.098;2022-11-21T05:51:20;14.52;;;3.33;;
63259;SDS011;49390;51.380;0.098;2022-11-21T05:53:49;9.73;;;2.85;;
63259;SDS011;49390;51.380;0.098;2022-11-21T05:56:18;12.95;;;2.72;;
63259;SDS011;49390;51.380;0.098;2022-11-21T05:58:46;10.63;;;3.00;;
63259;SDS011;49390;51.380;0.098;2022-11-21T06:01:15;11.60;;;3.10;;
63259;SDS011;49390;51.380;0.098;2022-11-21T06:04:06;10.00;;;3.00;;
63259;SDS011;49390;51.380;0.098;2022-11-21T06:06:34;19.42;;;2.95;;
63259;SDS011;49390;51.380;0.098;2022-11-21T06:09:04;12.60;;;2.90;;
63259;SDS011;49390;51.380;0.098;2022-11-21T06:11:32;10.02;;;3.03;;
63259;SDS011;49390;51.380;0.098;2022-11-21T06:14:00;14.65;;;3.20;;
63259;SDS011;49390;51.380;0.098;2022-11-21T06:16:28;17.02;;;2.90;;
63259;SDS011;49390;51.380;0.098;2022-11-21T06:18:56;10.73;;;2.88;;
63259;SDS011;49390;51.380;0.098;2022-11-21T06:21:26;14.57;;;3.45;;
63259;SDS011;49390;51.380;0.098;2022-11-21T06:23:56;13.23;;;3.25;;
63259;SDS011;49390;51.380;0.098;2022-11-21T06:26:26;15.60;;;3.75;;
63259;SDS011;49390;51.380;0.098;2022-11-21T06:28:54;10.20;;;2.90;;
63259;SDS011;49390;51.380;0.098;2022-11-21T06:31:24;10.10;;;3.03;;
63259;SDS011;49390;51.380;0.098;2022-11-21T06:33:54;10.82;;;2.95;;
63259;SDS011;49390;51.380;0.098;2022-11-21T06:36:26;12.27;;;3.67;;
63259;SDS011;49390;51.380;0.098;2022-11-21T06:38:54;16.65;;;3.95;;
63259;SDS011;49390;51.380;0.098;2022-11-21T06:41:24;15.15;;;4.10;;
63259;SDS011;49390;51.380;0.098;2022-11-21T06:43:57;16.38;;;3.78;;
63259;SDS011;49390;51.380;0.098;2022-11-21T06:46:27;11.75;;;3.83;;
63259;SDS011;49390;51.380;0.098;2022-11-21T06:48:55;13.55;;;4.13;;
63259;SDS011;49390;51.380;0.098;2022-11-21T06:51:24;16.88;;;3.08;;
63259;SDS011;49390;51.380;0.098;2022-11-21T06:53:54;10.80;;;3.67;;
63259;SDS011;49390;51.380;0.098;2022-11-21T06:56:24;9.98;;;3.63;;
63259;SDS011;49390;51.380;0.098;2022-11-21T06:58:57;10.73;;;4.28;;
63259;SDS011;49390;51.380;0.098;2022-11-21T07:01:25;10.05;;;3.55;;
63259;SDS011;49390;51.380;0.098;2022-11-21T07:03:54;12.63;;;4.10;;
63259;SDS011;49390;51.380;0.098;2022-11-21T07:06:22;11.68;;;3.83;;
63259;SDS011;49390;51.380;0.098;2022-11-21T07:08:52;6.25;;;3.20;;
63259;SDS011;49390;51.380;0.098;2022-11-21T07:11:40;14.05;;;3.50;;
63259;SDS011;49390;51.380;0.098;2022-11-21T07:14:09;14.18;;;3.72;;
63259;SDS011;49390;51.380;0.098;2022-11-21T07:16:37;16.02;;;3.78;;
63259;SDS011;49390;51.380;0.098;2022-11-21T07:19:06;14.93;;;4.30;;
63259;SDS011;49390;51.380;0.098;2022-11-21T07:22:06;12.00;;;3.22;;
63259;SDS011;49390;51.380;0.098;2022-11-21T07:24:36;17.00;;;3.45;;
63259;SDS011;49390;51.380;0.098;2022-11-21T07:27:04;12.40;;;2.80;;
63259;SDS011;49390;51.380;0.098;2022-11-21T07:29:32;13.35;;;2.80;;
63259;SDS011;49390;51.380;0.098;2022-11-21T07:32:01;8.63;;;2.50;;
63259;SDS011;49390;51.380;0.098;2022-11-21T07:34:30;14.32;;;3.65;;
63259;SDS011;49390;51.380;0.098;2022-11-21T07:36:58;11.00;;;2.75;;
63259;SDS011;49390;51.380;0.098;2022-11-21T07:39:27;8.57;;;2.80;;
63259;SDS011;49390;51.380;0.098;2022-11-21T07:41:56;13.07;;;3.28;;
63259;SDS011;49390;51.380;0.098;2022-11-21T07:44:26;8.50;;;2.65;;
63259;SDS011;49390;51.380;0.098;2022-11-21T07:46:54;11.23;;;2.90;;
63259;SDS011;49390;51.380;0.098;2022-11-21T07:49:22;11.63;;;2.67;;
63259;SDS011;49390;51.380;0.098;2022-11-21T07:51:50;18.65;;;3.83;;
63259;SDS011;49390;51.380;0.098;2022-11-21T07:54:19;9.25;;;2.40;;
63259;SDS011;49390;51.380;0.098;2022-11-21T07:56:47;9.98;;;2.72;;
63259;SDS011;49390;51.380;0.098;2022-11-21T07:59:15;13.10;;;2.60;;
63259;SDS011;49390;51.380;0.098;2022-11-21T08:01:45;7.50;;;2.45;;
63259;SDS011;49390;51.380;0.098;2022-11-21T08:04:14;14.50;;;3.15;;
63259;SDS011;49390;51.380;0.098;2022-11-21T08:06:42;8.07;;;2.75;;
63259;SDS011;49390;51.380;0.098;2022-11-21T08:09:11;9.57;;;2.70;;
63259;SDS011;49390;51.380;0.098;2022-11-21T08:11:40;13.80;;;3.17;;
63259;SDS011;49390;51.380;0.098;2022-11-21T08:14:28;9.00;;;2.60;;
63259;SDS011;49390;51.380;0.098;2022-11-21T08:17:06;14.07;;;2.90;;
63259;SDS011;49390;51.380;0.098;2022-11-21T08:19:37;12.98;;;3.10;;
63259;SDS011;49390;51.380;0.098;2022-11-21T08:22:08;12.52;;;2.90;;
63259;SDS011;49390;51.380;0.098;2022-11-21T08:24:37;11.23;;;3.15;;
63259;SDS011;49390;51.380;0.098;2022-11-21T08:27:05;10.70;;;2.72;;
63259;SDS011;49390;51.380;0.098;2022-11-21T08:29:34;6.63;;;2.53;;
63259;SDS011;49390;51.380;0.098;2022-11-21T08:32:05;9.15;;;2.80;;
63259;SDS011;49390;51.380;0.098;2022-11-21T08:34:35;9.32;;;2.72;;
63259;SDS011;49390;51.380;0.098;2022-11-21T08:37:04;15.23;;;3.20;;
63259;SDS011;49390;51.380;0.098;2022-11-21T08:39:38;8.88;;;2.58;;
63259;SDS011;49390;51.380;0.098;2022-11-21T08:42:09;21.67;;;2.90;;
63259;SDS011;49390;51.380;0.098;2022-11-21T08:44:42;10.80;;;3.30;;
63259;SDS011;49390;51.380;0.098;2022-11-21T08:47:48;8.60;;;2.47;;
63259;SDS011;49390;51.380;0.098;2022-11-21T08:53:39;9.35;;;2.42;;
63259;SDS011;49390;51.380;0.098;2022-11-21T08:56:10;10.85;;;2.67;;
63259;SDS011;49390;51.380;0.098;2022-11-21T08:58:39;10.40;;;2.83;;
63259;SDS011;49390;51.380;0.098;2022-11-21T09:01:11;13.43;;;3.17;;
63259;SDS011;49390;51.380;0.098;2022-11-21T09:03:39;7.40;;;2.88;;
63259;SDS011;49390;51.380;0.098;2022-11-21T09:06:07;9.65;;;2.78;;
63259;SDS011;49390;51.380;0.098;2022-11-21T09:08:36;12.65;;;3.15;;
63259;SDS011;49390;51.380;0.098;2022-11-21T09:11:05;9.07;;;3.00;;
63259;SDS011;49390;51.380;0.098;2022-11-21T09:13:35;10.63;;;2.80;;
63259;SDS011;49390;51.380;0.098;2022-11-21T09:16:04;9.32;;;2.63;;
63259;SDS011;49390;51.380;0.098;2022-11-21T09:19:25;7.68;;;2.60;;
63259;SDS011;49390;51.380;0.098;2022-11-21T09:21:53;9.15;;;3.42;;
63259;SDS011;49390;51.380;0.098;2022-11-21T09:24:22;8.98;;;2.25;;
63259;SDS011;49390;51.380;0.098;2022-11-21T09:26:50;12.32;;;2.80;;
63259;SDS011;49390;51.380;0.098;2022-11-21T09:29:19;12.70;;;2.90;;
63259;SDS011;49390;51.380;0.098;2022-11-21T09:31:48;10.60;;;2.60;;
63259;SDS011;49390;51.380;0.098;2022-11-21T09:34:16;12.82;;;2.92;;
63259;SDS011;49390;51.380;0.098;2022-11-21T09:36:45;17.45;;;4.05;;
63259;SDS011;49390;51.380;0.098;2022-11-21T09:39:16;9.43;;;2.95;;
63259;SDS011;49390;51.380;0.098;2022-11-21T09:47:10;12.75;;;3.28;;
63259;SDS011;49390;51.380;0.098;2022-11-21T09:49:48;10.20;;;3.00;;
63259;SDS011;49390;51.380;0.098;2022-11-21T09:52:53;10.75;;;3.25;;
63259;SDS011;49390;51.380;0.098;2022-11-21T09:55:48;13.35;;;3.00;;
63259;SDS011;49390;51.380;0.098;2022-11-21T10:01:13;14.05;;;3.97;;
63259;SDS011;49390;51.380;0.098;2022-11-21T10:03:47;13.50;;;3.58;;
63259;SDS011;49390;51.380;0.098;2022-11-21T10:09:33;13.35;;;3.80;;
63259;SDS011;49390;51.380;0.098;2022-11-21T10:15:28;11.32;;;3.10;;
63259;SDS011;49390;51.380;0.098;2022-11-21T10:20:51;12.70;;;4.28;;
63259;SDS011;49390;51.380;0.098;2022-11-21T10:28:58;15.05;;;4.15;;
63259;SDS011;49390;51.380;0.098;2022-11-21T10:31:33;13.60;;;4.05;;
63259;SDS011;49390;51.380;0.098;2022-11-21T10:34:12;10.43;;;3.72;;
63259;SDS011;49390;51.380;0.098;2022-11-21T10:36:48;15.07;;;4.43;;
63259;SDS011;49390;51.380;0.098;2022-11-21T10:39:32;13.98;;;3.70;;
63259;SDS011;49390;51.380;0.098;2022-11-21T10:42:16;13.70;;;4.60;;
63259;SDS011;49390;51.380;0.098;2022-11-21T10:44:51;12.43;;;4.63;;
63259;SDS011;49390;51.380;0.098;2022-11-21T10:47:37;18.50;;;4.97;;
63259;SDS011;49390;51.380;0.098;2022-11-21T10:52:49;16.15;;;4.55;;
63259;SDS011;49390;51.380;0.098;2022-11-21T10:55:28;18.95;;;5.70;;
63259;SDS011;49390;51.380;0.098;2022-11-21T10:57:56;11.15;;;3.65;;
63259;SDS011;49390;51.380;0.098;2022-11-21T11:00:25;22.92;;;4.45;;
63259;SDS011;49390;51.380;0.098;2022-11-21T11:05:25;15.55;;;3.90;;
63259;SDS011;49390;51.380;0.098;2022-11-21T11:08:11;12.77;;;4.55;;
63259;SDS011;49390;51.380;0.098;2022-11-21T11:10:42;14.25;;;3.95;;
63259;SDS011;49390;51.380;0.098;2022-11-21T11:13:16;10.88;;;4.13;;
63259;SDS011;49390;51.380;0.098;2022-11-21T11:16:18;18.75;;;4.03;;
63259;SDS011;49390;51.380;0.098;2022-11-21T11:29:23;15.50;;;3.92;;
63259;SDS011;49390;51.380;0.098;2022-11-21T11:34:36;15.13;;;5.10;;
63259;SDS011;49390;51.380;0.098;2022-11-21T11:37:10;8.52;;;3.35;;
63259;SDS011;49390;51.380;0.098;2022-11-21T11:47:58;14.63;;;4.65;;
63259;SDS011;49390;51.380;0.098;2022-11-21T11:50:46;17.25;;;4.20;;
63259;SDS011;49390;51.380;0.098;2022-11-21T11:53:23;16.60;;;3.97;;
63259;SDS011;49390;51.380;0.098;2022-11-21T11:59:00;13.85;;;3.92;;
63259;SDS011;49390;51.380;0.098;2022-11-21T12:01:39;17.23;;;4.25;;
63259;SDS011;49390;51.380;0.098;2022-11-21T12:04:14;20.63;;;4.82;;
63259;SDS011;49390;51.380;0.098;2022-11-21T12:06:46;21.30;;;4.68;;
63259;SDS011;49390;51.380;0.098;2022-11-21T12:09:39;13.00;;;3.90;;
63259;SDS011;49390;51.380;0.098;2022-11-21T12:12:25;18.92;;;5.13;;
63259;SDS011;49390;51.380;0.098;2022-11-21T12:23:50;17.27;;;4.13;;
63259;SDS011;49390;51.380;0.098;2022-11-21T12:31:51;14.05;;;3.92;;
63259;SDS011;49390;51.380;0.098;2022-11-21T12:43:17;11.32;;;2.90;;
63259;SDS011;49390;51.380;0.098;2022-11-21T12:46:01;16.73;;;3.25;;
63259;SDS011;49390;51.380;0.098;2022-11-21T12:48:50;15.27;;;3.65;;
63259;SDS011;49390;51.380;0.098;2022-11-21T13:08:42;13.93;;;3.55;;
63259;SDS011;49390;51.380;0.098;2022-11-21T13:11:20;12.25;;;3.08;;
63259;SDS011;49390;51.380;0.098;2022-11-21T13:17:00;7.00;;;2.80;;
63259;SDS011;49390;51.380;0.098;2022-11-21T13:25:08;10.73;;;3.10;;
63259;SDS011;49390;51.380;0.098;2022-11-21T13:27:39;12.90;;;3.08;;
63259;SDS011;49390;51.380;0.098;2022-11-21T13:32:44;7.68;;;2.28;;
63259;SDS011;49390;51.380;0.098;2022-11-21T13:46:02;4.47;;;1.63;;
63259;SDS011;49390;51.380;0.098;2022-11-21T13:48:52;6.60;;;2.00;;
63259;SDS011;49390;51.380;0.098;2022-11-21T13:51:45;6.82;;;1.80;;
63259;SDS011;49390;51.380;0.098;2022-11-21T14:02:21;6.18;;;2.15;;
63259;SDS011;49390;51.380;0.098;2022-11-21T14:07:50;4.82;;;2.03;;
63259;SDS011;49390;51.380;0.098;2022-11-21T14:10:30;6.95;;;2.33;;
63259;SDS011;49390;51.380;0.098;2022-11-21T14:13:00;6.47;;;1.85;;
63259;SDS011;49390;51.380;0.098;2022-11-21T14:18:27;3.80;;;1.70;;
63259;SDS011;49390;51.380;0.098;2022-11-21T14:20:57;7.03;;;1.90;;
63259;SDS011;49390;51.380;0.098;2022-11-21T14:23:28;6.72;;;1.80;;
63259;SDS011;49390;51.380;0.098;2022-11-21T14:26:01;7.40;;;2.03;;
63259;SDS011;49390;51.380;0.098;2022-11-21T14:28:33;9.45;;;2.17;;
63259;SDS011;49390;51.380;0.098;2022-11-21T14:31:08;9.35;;;2.47;;
63259;SDS011;49390;51.380;0.098;2022-11-21T14:33:43;5.85;;;1.65;;
63259;SDS011;49390;51.380;0.098;2022-11-21T14:36:15;7.35;;;2.20;;
63259;SDS011;49390;51.380;0.098;2022-11-21T14:38:54;5.20;;;1.83;;
63259;SDS011;49390;51.380;0.098;2022-11-21T14:41:50;8.50;;;2.20;;
63259;SDS011;49390;51.380;0.098;2022-11-21T14:44:19;6.43;;;2.17;;
63259;SDS011;49390;51.380;0.098;2022-11-21T14:46:50;6.60;;;2.20;;
63259;SDS011;49390;51.380;0.098;2022-11-21T14:49:28;6.85;;;2.50;;
63259;SDS011;49390;51.380;0.098;2022-11-21T14:54:50;7.15;;;2.00;;
63259;SDS011;49390;51.380;0.098;2022-11-21T14:57:41;10.02;;;2.05;;
63259;SDS011;49390;51.380;0.098;2022-11-21T15:00:13;5.35;;;2.08;;
63259;SDS011;49390;51.380;0.098;2022-11-21T15:03:03;6.35;;;2.40;;
63259;SDS011;49390;51.380;0.098;2022-11-21T15:05:32;5.13;;;1.70;;
63259;SDS011;49390;51.380;0.098;2022-11-21T15:08:22;5.82;;;1.60;;
63259;SDS011;49390;51.380;0.098;2022-11-21T15:11:11;9.88;;;1.88;;
63259;SDS011;49390;51.380;0.098;2022-11-21T15:13:43;2.88;;;1.50;;
63259;SDS011;49390;51.380;0.098;2022-11-21T15:16:36;4.47;;;1.77;;
63259;SDS011;49390;51.380;0.098;2022-11-21T15:19:08;5.93;;;1.98;;
63259;SDS011;49390;51.380;0.098;2022-11-21T15:21:42;4.55;;;1.80;;
63259;SDS011;49390;51.380;0.098;2022-11-21T15:24:16;6.80;;;1.92;;
63259;SDS011;49390;51.380;0.098;2022-11-21T15:26:44;2.72;;;1.60;;
63259;SDS011;49390;51.380;0.098;2022-11-21T15:29:33;7.32;;;2.00;;
63259;SDS011;49390;51.380;0.098;2022-11-21T15:32:05;5.43;;;2.08;;
63259;SDS011;49390;51.380;0.098;2022-11-21T15:34:43;4.95;;;1.98;;
63259;SDS011;49390;51.380;0.098;2022-11-21T15:37:15;4.90;;;1.83;;
63259;SDS011;49390;51.380;0.098;2022-11-21T15:39:45;5.57;;;2.53;;
63259;SDS011;49390;51.380;0.098;2022-11-21T15:42:49;4.25;;;2.05;;
63259;SDS011;49390;51.380;0.098;2022-11-21T15:45:20;4.55;;;2.10;;
63259;SDS011;49390;51.380;0.098;2022-11-21T15:47:52;7.65;;;2.47;;
63259;SDS011;49390;51.380;0.098;2022-11-21T15:50:22;6.75;;;2.30;;
63259;SDS011;49390;51.380;0.098;2022-11-21T15:52:51;5.72;;;2.70;;
63259;SDS011;49390;51.380;0.098;2022-11-21T15:55:22;7.80;;;2.55;;
63259;SDS011;49390;51.380;0.098;2022-11-21T15:57:52;5.22;;;2.20;;
63259;SDS011;49390;51.380;0.098;2022-11-21T16:00:21;4.32;;;1.95;;
63259;SDS011;49390;51.380;0.098;2022-11-21T16:02:51;5.97;;;2.00;;
63259;SDS011;49390;51.380;0.098;2022-11-21T16:05:20;3.35;;;1.92;;
63259;SDS011;49390;51.380;0.098;2022-11-21T16:07:48;5.75;;;2.03;;
63259;SDS011;49390;51.380;0.098;2022-11-21T16:10:16;6.07;;;2.28;;
63259;SDS011;49390;51.380;0.098;2022-11-21T16:12:54;5.18;;;2.45;;
63259;SDS011;49390;51.380;0.098;2022-11-21T16:15:22;7.50;;;2.35;;
63259;SDS011;49390;51.380;0.098;2022-11-21T16:17:50;5.57;;;2.47;;
63259;SDS011;49390;51.380;0.098;2022-11-21T16:20:19;5.20;;;1.95;;
63259;SDS011;49390;51.380;0.098;2022-11-21T16:22:48;4.88;;;2.47;;
63259;SDS011;49390;51.380;0.098;2022-11-21T16:25:16;4.95;;;2.15;;
63259;SDS011;49390;51.380;0.098;2022-11-21T16:27:45;6.60;;;2.60;;
63259;SDS011;49390;51.380;0.098;2022-11-21T16:30:13;4.00;;;2.15;;
63259;SDS011;49390;51.380;0.098;2022-11-21T16:32:42;7.90;;;2.55;;
63259;SDS011;49390;51.380;0.098;2022-11-21T16:35:11;5.03;;;2.65;;
63259;SDS011;49390;51.380;0.098;2022-11-21T16:37:39;8.18;;;2.60;;
63259;SDS011;49390;51.380;0.098;2022-11-21T16:40:08;6.15;;;3.25;;
63259;SDS011;49390;51.380;0.098;2022-11-21T16:42:36;6.95;;;3.80;;
63259;SDS011;49390;51.380;0.098;2022-11-21T16:45:06;9.38;;;4.45;;
63259;SDS011;49390;51.380;0.098;2022-11-21T16:47:36;7.57;;;3.92;;
63259;SDS011;49390;51.380;0.098;2022-11-21T16:50:05;7.43;;;3.38;;
63259;SDS011;49390;51.380;0.098;2022-11-21T16:52:33;5.97;;;2.70;;
63259;SDS011;49390;51.380;0.098;2022-11-21T16:55:02;6.55;;;3.03;;
63259;SDS011;49390;51.380;0.098;2022-11-21T16:57:32;6.97;;;3.05;;
63259;SDS011;49390;51.380;0.098;2022-11-21T17:00:01;4.13;;;1.98;;
63259;SDS011;49390;51.380;0.098;2022-11-21T17:02:31;3.35;;;1.70;;
63259;SDS011;49390;51.380;0.098;2022-11-21T17:04:59;3.95;;;2.10;;
63259;SDS011;49390;51.380;0.098;2022-11-21T17:07:29;3.20;;;1.95;;
63259;SDS011;49390;51.380;0.098;2022-11-21T17:09:59;4.13;;;2.00;;
63259;SDS011;49390;51.380;0.098;2022-11-21T17:12:27;3.47;;;2.20;;
63259;SDS011;49390;51.380;0.098;2022-11-21T17:14:55;5.40;;;2.00;;
63259;SDS011;49390;51.380;0.098;2022-11-21T17:17:26;2.92;;;1.65;;
63259;SDS011;49390;51.380;0.098;2022-11-21T17:19:54;2.90;;;1.70;;
63259;SDS011;49390;51.380;0.098;2022-11-21T17:22:22;5.43;;;1.75;;
63259;SDS011;49390;51.380;0.098;2022-11-21T17:24:52;2.90;;;1.58;;
63259;SDS011;49390;51.380;0.098;2022-11-21T17:27:21;1.80;;;1.33;;